Time,TemperatureF,DewpointF,PressureIn,WindDirection,WindDirectionDegrees,WindSpeedMPH,WindSpeedGustMPH,Humidity,HourlyPrecipIn,Conditions,Clouds,dailyrainin,SolarRadiationWatts/m^2,SoftwareType,DateUTC
2013-02-28 00:13:00,67.4,65.0,29.91,NW,304,0.0,-999.0,91,-99.99,,,0.00,0,weatherlink.com 1.10,2013-02-28 05:13:00,
2013-02-28 00:28:00,67.3,65.0,29.91,WNW,282,0.0,-999.0,91,-99.99,,,0.00,0,weatherlink.com 1.10,2013-02-28 05:28:00,
2013-02-28 00:43:00,66.8,64.0,29.91,West,263,1.0,-999.0,91,-99.99,,,0.00,0,weatherlink.com 1.10,2013-02-28 05:43:00,
2013-02-28 00:58:00,66.6,64.0,29.91,NW,304,1.0,-999.0,92,-99.99,,,0.00,0,weatherlink.com 1.10,2013-02-28 05:58:00,
2013-02-28 01:13:00,66.6,64.0,29.90,West,280,2.0,-999.0,92,-99.99,,,0.01,0,weatherlink.com 1.10,2013-02-28 06:13:00,
2013-02-28 01:28:00,66.4,64.0,29.89,WNW,288,3.0,-999.0,92,-99.99,,,0.01,0,weatherlink.com 1.10,2013-02-28 06:28:00,
2013-02-28 01:43:00,66.3,64.0,29.88,WNW,288,4.0,-999.0,92,-99.99,,,0.01,0,weatherlink.com 1.10,2013-02-28 06:43:00,
2013-02-28 01:58:00,66.0,64.0,29.87,WNW,288,0.0,-999.0,92,-99.99,,,0.01,0,weatherlink.com 1.10,2013-02-28 06:58:00,
2013-02-28 02:13:00,66.0,64.0,29.87,WNW,288,2.0,-999.0,92,-99.99,,,0.01,0,weatherlink.com 1.10,2013-02-28 07:13:00,
2013-02-28 02:28:00,66.0,64.0,29.86,WNW,288,0.0,-999.0,92,-99.99,,,0.01,0,weatherlink.com 1.10,2013-02-28 07:28:00,
2013-02-28 02:43:00,66.0,64.0,29.86,WNW,288,0.0,-999.0,92,-99.99,,,0.01,0,weatherlink.com 1.10,2013-02-28 07:43:00,
2013-02-28 02:58:00,65.8,64.0,29.87,WNW,288,0.0,-999.0,92,-99.99,,,0.01,0,weatherlink.com 1.10,2013-02-28 07:58:00,
2013-02-28 03:13:00,65.5,63.0,29.86,WNW,288,6.0,-999.0,92,-99.99,,,0.01,0,weatherlink.com 1.10,2013-02-28 08:13:00,
2013-02-28 03:28:00,65.3,63.0,29.87,NW,305,1.0,-999.0,92,-99.99,,,0.01,0,weatherlink.com 1.10,2013-02-28 08:28:00,
2013-02-28 03:43:00,65.0,62.0,29.87,WNW,292,0.0,-999.0,91,-99.99,,,0.01,0,weatherlink.com 1.10,2013-02-28 08:43:00,
2013-02-28 03:58:00,64.0,61.0,29.87,WNW,292,4.0,-999.0,91,-99.99,,,0.01,0,weatherlink.com 1.10,2013-02-28 08:58:00,
2013-02-28 04:13:00,64.0,61.0,29.87,WNW,286,0.0,-999.0,91,-99.99,,,0.01,0,weatherlink.com 1.10,2013-02-28 09:13:00,
2013-02-28 04:28:00,63.7,61.0,29.87,NW,307,2.0,-999.0,90,-99.99,,,0.01,0,weatherlink.com 1.10,2013-02-28 09:28:00,
2013-02-28 04:43:00,62.1,59.0,29.87,WSW,249,4.0,-999.0,89,-99.99,,,0.01,0,weatherlink.com 1.10,2013-02-28 09:43:00,
2013-02-28 04:58:00,62.1,58.0,29.88,West,277,4.0,-999.0,87,-99.99,,,0.01,0,weatherlink.com 1.10,2013-02-28 09:58:00,
2013-02-28 05:13:00,62.4,58.0,29.89,WNW,296,5.0,-999.0,84,-99.99,,,0.01,0,weatherlink.com 1.10,2013-02-28 10:13:00,
2013-02-28 05:28:00,62.4,57.0,29.90,WNW,294,1.0,-999.0,83,-99.99,,,0.01,0,weatherlink.com 1.10,2013-02-28 10:28:00,
2013-02-28 05:43:00,62.1,56.0,29.91,NW,319,0.0,-999.0,81,-99.99,,,0.01,0,weatherlink.com 1.10,2013-02-28 10:43:00,
2013-02-28 05:58:00,62.0,56.0,29.90,WNW,295,3.0,-999.0,80,-99.99,,,0.01,0,weatherlink.com 1.10,2013-02-28 10:58:00,
2013-02-28 06:13:00,62.0,56.0,29.90,NW,325,5.0,-999.0,80,-99.99,,,0.01,0,weatherlink.com 1.10,2013-02-28 11:13:00,
2013-02-28 06:28:00,61.5,55.0,29.91,WNW,298,5.0,-999.0,79,-99.99,,,0.01,0,weatherlink.com 1.10,2013-02-28 11:28:00,
2013-02-28 06:43:00,61.2,54.0,29.92,NW,306,3.0,-999.0,78,-99.99,,,0.01,0,weatherlink.com 1.10,2013-02-28 11:43:00,
2013-02-28 06:58:00,61.3,54.0,29.92,NNW,328,6.0,-999.0,78,-99.99,,,0.01,11,weatherlink.com 1.10,2013-02-28 11:58:00,
2013-02-28 07:13:00,61.2,54.0,29.92,NNW,334,6.0,-999.0,78,-99.99,,,0.01,35,weatherlink.com 1.10,2013-02-28 12:13:00,
2013-02-28 07:28:00,61.0,54.0,29.93,WNW,288,5.0,-999.0,77,-99.99,,,0.01,42,weatherlink.com 1.10,2013-02-28 12:28:00,
2013-02-28 07:43:00,61.0,54.0,29.93,NW,323,4.0,-999.0,77,-99.99,,,0.01,51,weatherlink.com 1.10,2013-02-28 12:43:00,
2013-02-28 07:58:00,61.2,54.0,29.93,NW,313,10.0,-999.0,77,-99.99,,,0.01,56,weatherlink.com 1.10,2013-02-28 12:58:00,
2013-02-28 08:13:00,61.3,54.0,29.93,NNW,333,3.0,-999.0,77,-99.99,,,0.01,69,weatherlink.com 1.10,2013-02-28 13:13:00,
2013-02-28 08:28:00,61.3,54.0,29.94,NW,326,2.0,-999.0,76,-99.99,,,0.01,81,weatherlink.com 1.10,2013-02-28 13:28:00,
2013-02-28 08:43:00,61.8,54.0,29.94,WNW,290,4.0,-999.0,76,-99.99,,,0.01,121,weatherlink.com 1.10,2013-02-28 13:43:00,
2013-02-28 08:58:00,62.1,54.0,29.95,WNW,283,7.0,-999.0,74,-99.99,,,0.01,181,weatherlink.com 1.10,2013-02-28 13:58:00,
2013-02-28 09:13:00,62.7,54.0,29.95,NW,309,2.0,-999.0,74,-99.99,,,0.01,211,weatherlink.com 1.10,2013-02-28 14:13:00,
2013-02-28 09:28:00,63.1,54.0,29.95,WNW,290,4.0,-999.0,73,-99.99,,,0.01,244,weatherlink.com 1.10,2013-02-28 14:28:00,
2013-02-28 09:43:00,63.5,54.0,29.95,NW,321,3.0,-999.0,72,-99.99,,,0.01,148,weatherlink.com 1.10,2013-02-28 14:43:00,
2013-02-28 09:58:00,63.9,54.0,29.95,NW,319,0.0,-999.0,69,-99.99,,,0.01,253,weatherlink.com 1.10,2013-02-28 14:58:00,
2013-02-28 10:13:00,64.3,54.0,29.95,WNW,296,4.0,-999.0,70,-99.99,,,0.01,220,weatherlink.com 1.10,2013-02-28 15:13:00,
2013-02-28 10:28:00,65.0,54.0,29.94,NW,317,4.0,-999.0,67,-99.99,,,0.01,274,weatherlink.com 1.10,2013-02-28 15:28:00,
2013-02-28 10:43:00,65.6,53.0,29.94,NNW,342,7.0,-999.0,65,-99.99,,,0.01,404,weatherlink.com 1.10,2013-02-28 15:43:00,
2013-02-28 10:58:00,66.3,53.0,29.95,WNW,291,3.0,-999.0,63,-99.99,,,0.01,380,weatherlink.com 1.10,2013-02-28 15:58:00,
2013-02-28 11:13:00,67.3,54.0,29.95,WNW,302,4.0,-999.0,62,-99.99,,,0.01,381,weatherlink.com 1.10,2013-02-28 16:13:00,
2013-02-28 11:28:00,68.1,54.0,29.95,NW,310,4.0,-999.0,62,-99.99,,,0.01,497,weatherlink.com 1.10,2013-02-28 16:28:00,
2013-02-28 11:43:00,67.9,54.0,29.95,WNW,286,5.0,-999.0,61,-99.99,,,0.01,427,weatherlink.com 1.10,2013-02-28 16:43:00,
2013-02-28 11:58:00,68.9,53.0,29.95,West,277,4.0,-999.0,57,-99.99,,,0.01,475,weatherlink.com 1.10,2013-02-28 16:58:00,
2013-02-28 12:13:00,69.1,53.0,29.94,NW,323,3.0,-999.0,56,-99.99,,,0.01,854,weatherlink.com 1.10,2013-02-28 17:13:00,
2013-02-28 12:28:00,70.3,53.0,29.93,WNW,299,1.0,-999.0,55,-99.99,,,0.01,575,weatherlink.com 1.10,2013-02-28 17:28:00,
2013-02-28 12:43:00,70.9,52.0,29.93,NW,306,5.0,-999.0,51,-99.99,,,0.01,650,weatherlink.com 1.10,2013-02-28 17:43:00,
2013-02-28 12:58:00,72.1,53.0,29.91,North,11,6.0,-999.0,51,-99.99,,,0.01,800,weatherlink.com 1.10,2013-02-28 17:58:00,
2013-02-28 13:13:00,72.0,52.0,29.91,NNW,337,4.0,-999.0,50,-99.99,,,0.01,322,weatherlink.com 1.10,2013-02-28 18:13:00,
2013-02-28 13:28:00,71.5,53.0,29.89,WNW,290,2.0,-999.0,52,-99.99,,,0.01,290,weatherlink.com 1.10,2013-02-28 18:28:00,
2013-02-28 13:43:00,70.6,53.0,29.89,WNW,289,3.0,-999.0,54,-99.99,,,0.01,120,weatherlink.com 1.10,2013-02-28 18:43:00,
2013-02-28 13:58:00,69.9,52.0,29.88,NNW,333,4.0,-999.0,54,-99.99,,,0.01,109,weatherlink.com 1.10,2013-02-28 18:58:00,
2013-02-28 14:13:00,69.6,53.0,29.88,WNW,298,1.0,-999.0,56,-99.99,,,0.01,114,weatherlink.com 1.10,2013-02-28 19:13:00,
2013-02-28 14:28:00,68.8,52.0,29.88,WNW,293,4.0,-999.0,55,-99.99,,,0.01,181,weatherlink.com 1.10,2013-02-28 19:28:00,
2013-02-28 14:43:00,69.1,53.0,29.88,WNW,294,1.0,-999.0,57,-99.99,,,0.01,295,weatherlink.com 1.10,2013-02-28 19:43:00,
2013-02-28 14:58:00,68.9,53.0,29.88,WNW,299,2.0,-999.0,57,-99.99,,,0.01,195,weatherlink.com 1.10,2013-02-28 19:58:00,
2013-02-28 15:13:00,68.4,53.0,29.87,WNW,299,4.0,-999.0,58,-99.99,,,0.01,76,weatherlink.com 1.10,2013-02-28 20:13:00,
2013-02-28 15:28:00,68.1,52.0,29.87,WNW,296,2.0,-999.0,56,-99.99,,,0.01,130,weatherlink.com 1.10,2013-02-28 20:28:00,
2013-02-28 15:43:00,68.4,50.0,29.87,West,281,1.0,-999.0,52,-99.99,,,0.01,329,weatherlink.com 1.10,2013-02-28 20:43:00,
2013-02-28 15:58:00,68.3,50.0,29.87,WNW,303,2.0,-999.0,52,-99.99,,,0.01,234,weatherlink.com 1.10,2013-02-28 20:58:00,
2013-02-28 16:13:00,68.6,51.0,29.87,NW,308,3.0,-999.0,53,-99.99,,,0.01,248,weatherlink.com 1.10,2013-02-28 21:13:00,
2013-02-28 16:28:00,68.4,51.0,29.87,West,267,0.0,-999.0,55,-99.99,,,0.01,209,weatherlink.com 1.10,2013-02-28 21:28:00,
2013-02-28 16:43:00,68.8,49.0,29.87,West,269,0.0,-999.0,50,-99.99,,,0.01,79,weatherlink.com 1.10,2013-02-28 21:43:00,
2013-02-28 16:58:00,68.8,50.0,29.87,West,269,0.0,-999.0,52,-99.99,,,0.01,111,weatherlink.com 1.10,2013-02-28 21:58:00,
2013-02-28 17:13:00,68.8,51.0,29.87,West,269,1.0,-999.0,54,-99.99,,,0.01,84,weatherlink.com 1.10,2013-02-28 22:13:00,
2013-02-28 17:28:00,68.9,51.0,29.87,WNW,282,0.0,-999.0,53,-99.99,,,0.01,58,weatherlink.com 1.10,2013-02-28 22:28:00,
2013-02-28 17:43:00,68.6,51.0,29.87,WNW,282,3.0,-999.0,54,-99.99,,,0.01,51,weatherlink.com 1.10,2013-02-28 22:43:00,
2013-02-28 17:58:00,68.3,50.0,29.88,WNW,282,2.0,-999.0,52,-99.99,,,0.01,21,weatherlink.com 1.10,2013-02-28 22:58:00,
2013-02-28 18:13:00,67.9,48.0,29.87,West,269,0.0,-999.0,49,-99.99,,,0.01,11,weatherlink.com 1.10,2013-02-28 23:13:00,
2013-02-28 18:28:00,67.8,49.0,29.89,West,269,0.0,-999.0,52,-99.99,,,0.01,0,weatherlink.com 1.10,2013-02-28 23:28:00,
2013-02-28 18:43:00,67.6,50.0,29.89,West,270,1.0,-999.0,54,-99.99,,,0.01,0,weatherlink.com 1.10,2013-02-28 23:43:00,
2013-02-28 18:58:00,67.3,50.0,29.88,West,270,0.0,-999.0,55,-99.99,,,0.01,0,weatherlink.com 1.10,2013-02-28 23:58:00,
2013-02-28 19:13:00,67.1,51.0,29.89,West,272,0.0,-999.0,56,-99.99,,,0.01,0,weatherlink.com 1.10,2013-03-01 00:13:00,
2013-02-28 19:28:00,67.1,51.0,29.89,WSW,245,0.0,-999.0,57,-99.99,,,0.01,0,weatherlink.com 1.10,2013-03-01 00:28:00,
2013-02-28 19:43:00,66.9,51.0,29.90,WSW,245,0.0,-999.0,57,-99.99,,,0.01,0,weatherlink.com 1.10,2013-03-01 00:43:00,
2013-02-28 19:58:00,66.9,51.0,29.89,WSW,245,0.0,-999.0,57,-99.99,,,0.01,0,weatherlink.com 1.10,2013-03-01 00:58:00,
2013-02-28 20:13:00,66.9,51.0,29.89,WSW,245,0.0,-999.0,58,-99.99,,,0.01,0,weatherlink.com 1.10,2013-03-01 01:13:00,
2013-02-28 20:28:00,66.8,51.0,29.89,WSW,245,0.0,-999.0,58,-99.99,,,0.01,0,weatherlink.com 1.10,2013-03-01 01:28:00,
2013-02-28 20:43:00,66.6,51.0,29.90,WSW,245,0.0,-999.0,57,-99.99,,,0.01,0,weatherlink.com 1.10,2013-03-01 01:43:00,
2013-02-28 20:58:00,66.4,51.0,29.90,WSW,245,0.0,-999.0,58,-99.99,,,0.01,0,weatherlink.com 1.10,2013-03-01 01:58:00,
2013-02-28 21:13:00,66.0,51.0,29.90,WSW,245,0.0,-999.0,58,-99.99,,,0.01,0,weatherlink.com 1.10,2013-03-01 02:13:00,
2013-02-28 21:28:00,65.6,50.0,29.90,WSW,245,0.0,-999.0,58,-99.99,,,0.01,0,weatherlink.com 1.10,2013-03-01 02:28:00,
2013-02-28 21:43:00,65.5,50.0,29.90,WSW,245,0.0,-999.0,57,-99.99,,,0.01,0,weatherlink.com 1.10,2013-03-01 02:43:00,
2013-02-28 21:58:00,65.3,49.0,29.90,WSW,245,0.0,-999.0,57,-99.99,,,0.01,0,weatherlink.com 1.10,2013-03-01 02:58:00,
2013-02-28 22:13:00,65.3,49.0,29.90,WSW,245,0.0,-999.0,57,-99.99,,,0.01,0,weatherlink.com 1.10,2013-03-01 03:13:00,
2013-02-28 22:28:00,65.3,49.0,29.90,WSW,245,1.0,-999.0,56,-99.99,,,0.01,0,weatherlink.com 1.10,2013-03-01 03:28:00,
2013-02-28 22:43:00,65.5,49.0,29.90,WSW,245,3.0,-999.0,56,-99.99,,,0.01,0,weatherlink.com 1.10,2013-03-01 03:43:00,
2013-02-28 22:58:00,65.6,49.0,29.90,WSW,245,0.0,-999.0,56,-99.99,,,0.01,0,weatherlink.com 1.10,2013-03-01 03:58:00,
2013-02-28 23:13:00,65.8,50.0,29.90,WSW,245,0.0,-999.0,57,-99.99,,,0.01,0,weatherlink.com 1.10,2013-03-01 04:13:00,
2013-02-28 23:28:00,65.8,50.0,29.89,WSW,245,0.0,-999.0,58,-99.99,,,0.01,0,weatherlink.com 1.10,2013-03-01 04:28:00,
2013-02-28 23:43:00,65.6,51.0,29.89,WSW,245,0.0,-999.0,59,-99.99,,,0.00,0,weatherlink.com 1.10,2013-03-01 04:43:00,
2013-02-28 23:58:00,65.8,52.0,29.90,WSW,249,2.0,-999.0,62,-99.99,,,0.00,0,weatherlink.com 1.10,2013-03-01 04:58:00,